地図

経路データ

SID SEASON NUMBER BASIN SUBBASIN NAME ISO_TIME NATURE LAT LON WMO_WIND WMO_PRES WMO_AGENCY TRACK_TYPE DIST2LAND LANDFALL IFLAG USA_AGENCY USA_ATCF_ID USA_LAT USA_LON USA_RECORD USA_STATUS USA_WIND USA_PRES USA_SSHS USA_R34_NE USA_R34_SE USA_R34_SW USA_R34_NW USA_R50_NE USA_R50_SE USA_R50_SW USA_R50_NW USA_R64_NE USA_R64_SE USA_R64_SW USA_R64_NW USA_POCI USA_ROCI USA_RMW USA_EYE TOKYO_LAT TOKYO_LON TOKYO_GRADE TOKYO_WIND TOKYO_PRES TOKYO_R50_DIR TOKYO_R50_LONG TOKYO_R50_SHORT TOKYO_R30_DIR TOKYO_R30_LONG TOKYO_R30_SHORT TOKYO_LAND CMA_LAT CMA_LON CMA_CAT CMA_WIND CMA_PRES HKO_LAT HKO_LON HKO_CAT HKO_WIND HKO_PRES NEWDELHI_LAT NEWDELHI_LON NEWDELHI_GRADE NEWDELHI_WIND NEWDELHI_PRES NEWDELHI_CI NEWDELHI_DP NEWDELHI_POCI REUNION_LAT REUNION_LON REUNION_TYPE REUNION_WIND REUNION_PRES REUNION_TNUM REUNION_CI REUNION_RMW REUNION_R34_NE REUNION_R34_SE REUNION_R34_SW REUNION_R34_NW REUNION_R50_NE REUNION_R50_SE REUNION_R50_SW REUNION_R50_NW REUNION_R64_NE REUNION_R64_SE REUNION_R64_SW REUNION_R64_NW BOM_LAT BOM_LON BOM_TYPE BOM_WIND BOM_PRES BOM_TNUM BOM_CI BOM_RMW BOM_R34_NE BOM_R34_SE BOM_R34_SW BOM_R34_NW BOM_R50_NE BOM_R50_SE BOM_R50_SW BOM_R50_NW BOM_R64_NE BOM_R64_SE BOM_R64_SW BOM_R64_NW BOM_ROCI BOM_POCI BOM_EYE BOM_POS_METHOD BOM_PRES_METHOD NADI_LAT NADI_LON NADI_CAT NADI_WIND NADI_PRES WELLINGTON_LAT WELLINGTON_LON WELLINGTON_WIND WELLINGTON_PRES DS824_LAT DS824_LON DS824_STAGE DS824_WIND DS824_PRES TD9636_LAT TD9636_LON TD9636_STAGE TD9636_WIND TD9636_PRES TD9635_LAT TD9635_LON TD9635_WIND TD9635_PRES TD9635_ROCI NEUMANN_LAT NEUMANN_LON NEUMANN_CLASS NEUMANN_WIND NEUMANN_PRES MLC_LAT MLC_LON MLC_CLASS MLC_WIND MLC_PRES USA_GUST BOM_GUST BOM_GUST_PER REUNION_GUST REUNION_GUST_PER USA_SEAHGT USA_SEARAD_NE USA_SEARAD_SE USA_SEARAD_SW USA_SEARAD_NW STORM_SPEED STORM_DIR
1971188N12254 1971 65 EP MM ELEANOR 1971-07-07 00:00:00 TS 11.8000 -106.200 25 hurdat_epa main 783 776 O________OO___ hurdat_epa EP051971 11.8000 -106.200 TD 25 -1 11.8000 -106.200 TC 25 11.8000 -106.200 1 9 290
1971188N12254 1971 65 EP MM ELEANOR 1971-07-07 03:00:00 TS 11.9604 -106.651 main 784 784 P________PP___ EP051971 11.9701 -106.637 TD 25 -1 11.9701 -106.637 TC 25 11.9215 -106.706 1 9 288
1971188N12254 1971 65 EP MM ELEANOR 1971-07-07 06:00:00 TS 12.0868 -107.120 25 hurdat_epa main 794 794 O________OP___ hurdat_epa EP051971 12.1000 -107.100 TD 25 -1 12.1000 -107.100 TC 25 12.0340 -107.199 1 10 282
1971188N12254 1971 65 EP MM ELEANOR 1971-07-07 09:00:00 TS 12.1579 -107.614 main 812 812 P________PP___ EP051971 12.1650 -107.600 TD 25 -1 12.1650 -107.600 TC 25 12.1295 -107.668 1 10 277
1971188N12254 1971 65 EP MM ELEANOR 1971-07-07 12:00:00 TS 12.2000 -108.100 25 hurdat_epa main 842 842 O________OO___ hurdat_epa EP051971 12.2000 -108.100 TD 25 -1 12.2000 -108.100 TC 25 12.2000 -108.100 1 9 276
1971188N12254 1971 65 EP MM ELEANOR 1971-07-07 15:00:00 TS 12.2542 -108.545 main 859 859 P________PP___ EP051971 12.2574 -108.557 TD 25 -1 12.2574 -108.557 TC 25 12.2413 -108.493 1 9 276
1971188N12254 1971 65 EP MM ELEANOR 1971-07-07 18:00:00 TS 12.2926 -108.978 25 hurdat_epa main 893 893 O________OP___ hurdat_epa EP051971 12.3000 -109.000 TD 25 -1 12.3000 -109.000 TC 25 12.2631 -108.888 1 8 273
1971188N12254 1971 65 EP MM ELEANOR 1971-07-07 21:00:00 TS 12.2953 -109.380 main 915 915 P________PP___ EP051971 12.2995 -109.390 TD 25 -1 12.2995 -109.390 TC 25 12.2784 -109.340 1 9 270
1971188N12254 1971 65 EP MM ELEANOR 1971-07-08 00:00:00 TS 12.3000 -109.900 25 hurdat_epa main 945 945 O________OO___ hurdat_epa EP051971 12.3000 -109.900 TD 25 -1 12.3000 -109.900 TC 25 12.3000 -109.900 1 13 272
1971188N12254 1971 65 EP MM ELEANOR 1971-07-08 03:00:00 TS 12.3405 -110.683 main 997 997 P________PP___ EP051971 12.3427 -110.690 TD 25 -1 12.3427 -110.690 TC 25 12.3317 -110.656 1 16 273
1971188N12254 1971 65 EP MM ELEANOR 1971-07-08 06:00:00 TS 12.3943 -111.584 25 hurdat_epa main 1052 1052 O________OP___ hurdat_epa EP051971 12.4000 -111.600 TD 25 -1 12.4000 -111.600 TC 25 12.3715 -111.518 1 17 273
1971188N12254 1971 65 EP MM ELEANOR 1971-07-08 09:00:00 TS 12.4390 -112.456 main 1120 1120 P________PP___ EP051971 12.4424 -112.465 TD 32 -1 12.4424 -112.465 TC 32 12.4253 -112.421 1 17 274
1971188N12254 1971 65 EP MM ELEANOR 1971-07-08 12:00:00 TS 12.5000 -113.300 40 hurdat_epa main 1174 1174 O________OO___ hurdat_epa EP051971 12.5000 -113.300 TS 40 0 12.5000 -113.300 TC 40 12.5000 -113.300 2 16 275
1971188N12254 1971 65 EP MM ELEANOR 1971-07-08 15:00:00 TS 12.5889 -114.061 main 1230 1230 P________PP___ EP051971 12.5847 -114.073 TS 40 0 12.5847 -114.073 TC 40 12.6055 -114.016 2 15 278
1971188N12254 1971 65 EP MM ELEANOR 1971-07-08 18:00:00 TS 12.7064 -114.781 40 hurdat_epa main 1248 1247 O________OP___ hurdat_epa EP051971 12.7000 -114.800 TS 40 0 12.7000 -114.800 TC 40 12.7321 -114.705 2 14 281
1971188N12254 1971 65 EP MM ELEANOR 1971-07-08 21:00:00 TS 12.8530 -115.453 main 1260 1260 P________PP___ EP051971 12.8493 -115.463 TS 42 0 12.8493 -115.463 TC 42 12.8677 -115.417 2 14 282
1971188N12254 1971 65 EP MM ELEANOR 1971-07-09 00:00:00 TS 13.0000 -116.200 45 hurdat_epa main 1286 1286 O________OO___ hurdat_epa EP051971 13.0000 -116.200 TS 45 0 13.0000 -116.200 TC 45 13.0000 -116.200 2 17 279
1971188N12254 1971 65 EP MM ELEANOR 1971-07-09 03:00:00 TS 13.1038 -117.160 main 1334 1334 P________PP___ EP051971 13.1076 -117.155 TS 45 0 13.1076 -117.155 TC 45 13.0885 -117.178 2 20 276
1971188N12254 1971 65 EP MM ELEANOR 1971-07-09 06:00:00 TS 13.1945 -118.205 45 hurdat_epa main 1388 1388 O________OP___ hurdat_epa EP051971 13.2000 -118.200 TS 45 0 13.2000 -118.200 TC 45 13.1724 -118.223 2 20 275
1971188N12254 1971 65 EP MM ELEANOR 1971-07-09 09:00:00 TS 13.2821 -119.253 main 1454 1454 P________PP___ EP051971 13.2851 -119.253 TS 45 0 13.2851 -119.253 TC 45 13.2698 -119.257 2 20 276
1971188N12254 1971 65 EP MM ELEANOR 1971-07-09 12:00:00 TS 13.4000 -120.200 45 hurdat_epa main 1512 1512 O________OO___ hurdat_epa EP051971 13.4000 -120.200 TS 45 0 13.4000 -120.200 TC 45 13.4000 -120.200 2 16 281
1971188N12254 1971 65 EP MM ELEANOR 1971-07-09 15:00:00 TS 13.5813 -120.911 main 1546 1546 P________PP___ EP051971 13.5768 -120.903 TS 47 0 13.5768 -120.903 TC 47 13.5991 -120.946 2 13 288
1971188N12254 1971 65 EP MM ELEANOR 1971-07-09 18:00:00 TS 13.8064 -121.519 50 hurdat_epa main 1567 1567 O________OP___ hurdat_epa EP051971 13.8000 -121.500 TS 50 0 13.8000 -121.500 TC 50 13.8322 -121.597 2 13 291
1971188N12254 1971 65 EP MM ELEANOR 1971-07-09 21:00:00 TS 14.0547 -122.160 main 1588 1588 P________PP___ EP051971 14.0498 -122.150 TS 50 0 14.0498 -122.150 TC 50 14.0744 -122.199 2 13 292
1971188N12254 1971 65 EP MM ELEANOR 1971-07-10 00:00:00 TS 14.3000 -122.800 50 hurdat_epa main 1614 1613 O________OO___ hurdat_epa EP051971 14.3000 -122.800 TS 50 0 14.3000 -122.800 TC 50 14.3000 -122.800 2 13 290
1971188N12254 1971 65 EP MM ELEANOR 1971-07-10 03:00:00 TS 14.5193 -123.447 main 1642 1642 P________PP___ EP051971 14.5223 -123.443 TS 50 0 14.5223 -123.443 TC 50 14.5076 -123.464 2 13 287
1971188N12254 1971 65 EP MM ELEANOR 1971-07-10 06:00:00 TS 14.6978 -124.107 50 hurdat_epa main 1679 1679 O________OP___ hurdat_epa EP051971 14.7000 -124.100 TS 50 0 14.7000 -124.100 TC 50 14.6892 -124.134 2 13 283
1971188N12254 1971 65 EP MM ELEANOR 1971-07-10 09:00:00 TS 14.8291 -124.797 main 1726 1726 P________PP___ EP051971 14.8299 -124.793 TS 45 0 14.8299 -124.793 TC 45 14.8262 -124.813 2 14 279
1971188N12254 1971 65 EP MM ELEANOR 1971-07-10 12:00:00 TS 14.9000 -125.500 40 hurdat_epa main 1775 1775 O________OO___ hurdat_epa EP051971 14.9000 -125.500 TS 40 0 14.9000 -125.500 TC 40 14.9000 -125.500 2 14 274
1971188N12254 1971 65 EP MM ELEANOR 1971-07-10 15:00:00 TS 14.9302 -126.206 main 1833 1833 P________PP___ EP051971 14.9373 -126.200 TS 40 0 14.9373 -126.200 TC 40 14.9020 -126.230 2 14 269
1971188N12254 1971 65 EP MM ELEANOR 1971-07-10 18:00:00 TS 14.8881 -126.912 40 1009 hurdat_epa main 1886 1886 O________OP___ hurdat_epa EP051971 14.9000 -126.900 TS 40 1009 0 14.9000 -126.900 TC 40 1009 14.8404 -126.961 2 14 263
1971188N12254 1971 65 EP MM ELEANOR 1971-07-10 21:00:00 TS 14.7587 -127.636 main 1942 1942 P________PP___ EP051971 14.7650 -127.630 TS 40 0 14.7650 -127.630 TC 40 14.7334 -127.661 2 14 258
1971188N12254 1971 65 EP MM ELEANOR 1971-07-11 00:00:00 TS 14.6000 -128.300 40 hurdat_epa main 2008 2008 O________OO___ hurdat_epa EP051971 14.6000 -128.300 TS 40 0 14.6000 -128.300 TC 40 14.6000 -128.300 2 12 257
1971188N12254 1971 65 EP MM ELEANOR 1971-07-11 03:00:00 TS 14.4971 -128.841 main 2052 2052 P________PP___ EP051971 14.5072 -128.837 TS 40 0 14.5072 -128.837 TC 40 14.4564 -128.856 2 10 257
1971188N12254 1971 65 EP MM ELEANOR 1971-07-11 06:00:00 TS 14.3815 -129.308 40 hurdat_epa main 2096 2096 O________OP___ hurdat_epa EP051971 14.4000 -129.300 TS 40 0 14.4000 -129.300 TC 40 14.3074 -129.342 2 9 252
1971188N12254 1971 65 EP MM ELEANOR 1971-07-11 09:00:00 TS 14.2091 -129.757 main 2149 2149 P________PP___ EP051971 14.2227 -129.750 TS 40 0 14.2227 -129.750 TC 40 14.1547 -129.783 2 9 246
1971188N12254 1971 65 EP MM ELEANOR 1971-07-11 12:00:00 TS 14.0000 -130.200 40 hurdat_epa main 2195 O________OO___ hurdat_epa EP051971 14.0000 -130.200 TS 40 0 14.0000 -130.200 TC 40 14.0000 -130.200 2 10 244

IBTrACS Databaseについて

本データベースは、米国NOAAが公開する1842年以降の世界の熱帯低気圧のベストトラックデータアーカイブInternational Best Track Archive for Climate Stewardship (IBTrACS)を、ウェブで閲覧しやすい形式に変換したものです。

最終更新日:2021-10-21